createdAt,value
2023-02-14T00:01:55.697Z,83.76
2023-02-14T00:04:26.865Z,84.05
2023-02-14T00:06:55.392Z,85.32
2023-02-14T00:09:24.699Z,84.03
2023-02-14T00:11:53.707Z,83.93
2023-02-14T00:14:40.106Z,84.20
2023-02-14T00:17:08.773Z,84.36
2023-02-14T00:19:38.603Z,89.20
2023-02-14T00:22:07.123Z,84.93
2023-02-14T00:24:35.595Z,83.91
2023-02-14T00:27:04.156Z,84.27
2023-02-14T00:29:34.117Z,84.82
2023-02-14T00:32:02.814Z,84.31
2023-02-14T00:34:33.408Z,83.35
2023-02-14T00:37:03.637Z,84.61
2023-02-14T00:39:32.413Z,84.29
2023-02-14T00:42:00.879Z,87.48
2023-02-14T00:44:29.357Z,85.37
2023-02-14T00:46:58.088Z,85.86
2023-02-14T00:49:27.612Z,84.67
2023-02-14T00:51:56.146Z,84.20
2023-02-14T00:54:26.105Z,83.94
2023-02-14T00:56:54.541Z,84.33
2023-02-14T00:59:22.980Z,85.14
2023-02-14T01:01:51.556Z,84.41
2023-02-14T01:04:20.144Z,86.21
2023-02-14T01:06:48.902Z,86.57
2023-02-14T01:09:17.346Z,85.13
2023-02-14T01:11:47.175Z,85.76
2023-02-14T01:14:15.642Z,85.34
2023-02-14T01:16:44.259Z,84.43
2023-02-14T01:19:13.183Z,84.13
2023-02-14T01:21:42.797Z,86.32
2023-02-14T01:24:12.014Z,84.35
2023-02-14T01:26:41.262Z,85.84
2023-02-14T01:29:11.212Z,85.15
2023-02-14T01:31:39.790Z,84.16
2023-02-14T01:34:08.330Z,83.55
2023-02-14T01:36:39.764Z,84.36
2023-02-14T01:39:12.361Z,88.71
2023-02-14T01:41:42.965Z,85.77
2023-02-14T01:44:59.865Z,88.49
2023-02-14T01:47:30.681Z,86.03
2023-02-14T01:50:05.858Z,84.69
2023-02-14T01:52:38.929Z,83.93
2023-02-14T01:55:12.619Z,83.09
2023-02-14T01:57:54.830Z,85.26
2023-02-14T02:00:43.246Z,85.20
2023-02-14T02:03:14.485Z,86.25
2023-02-14T02:05:50.460Z,84.64
2023-02-14T02:08:19.408Z,84.95
2023-02-14T02:11:11.874Z,84.51
2023-02-14T02:13:40.546Z,83.90
2023-02-14T02:16:31.217Z,84.92
2023-02-14T02:19:26.353Z,84.29
2023-02-14T02:22:21.365Z,84.75
2023-02-14T02:25:01.149Z,85.24
2023-02-14T02:28:10.070Z,85.05
2023-02-14T02:31:02.240Z,88.40
2023-02-14T02:34:22.404Z,86.63
2023-02-14T02:37:04.745Z,84.03
2023-02-14T02:39:47.648Z,86.25
2023-02-14T02:42:31.123Z,87.65
2023-02-14T02:45:10.304Z,85.54
2023-02-14T02:47:43.632Z,84.45
2023-02-14T02:50:42.831Z,85.68
2023-02-14T02:53:21.198Z,85.53
2023-02-14T02:56:13.462Z,83.49
2023-02-14T02:58:47.242Z,83.60
2023-02-14T03:01:20.595Z,83.76
2023-02-14T03:04:24.131Z,87.88
2023-02-14T03:06:53.516Z,87.09
2023-02-14T03:09:55.209Z,89.31
2023-02-14T03:12:58.104Z,85.42
2023-02-14T03:15:40.448Z,85.30
2023-02-14T03:18:16.698Z,87.14
2023-02-14T03:20:55.154Z,84.99
2023-02-14T03:23:29.351Z,85.41
2023-02-14T03:26:13.250Z,84.76
2023-02-14T03:28:47.884Z,84.45
2023-02-14T03:31:23.663Z,83.69
2023-02-14T03:34:00.637Z,84.98
2023-02-14T03:36:38.211Z,85.06
2023-02-14T03:39:12.995Z,84.77
2023-02-14T03:41:48.948Z,83.68
2023-02-14T03:44:22.620Z,86.89
2023-02-14T03:46:56.247Z,84.65
2023-02-14T03:49:31.666Z,86.15
2023-02-14T03:52:03.596Z,84.98
2023-02-14T03:54:33.704Z,87.64
2023-02-14T03:57:15.387Z,86.28
2023-02-14T03:59:44.750Z,83.88
2023-02-14T04:02:18.971Z,83.51
2023-02-14T04:04:50.558Z,85.15
2023-02-14T04:07:21.711Z,85.28
2023-02-14T04:09:51.027Z,84.03
2023-02-14T04:12:32.250Z,84.67
2023-02-14T04:15:07.797Z,87.85
2023-02-14T04:17:53.486Z,87.81
2023-02-14T04:20:22.301Z,87.65
2023-02-14T04:22:51.767Z,85.00
2023-02-14T04:25:21.269Z,84.66
2023-02-14T04:27:51.390Z,84.05
2023-02-14T04:30:21.019Z,84.53
2023-02-14T04:32:49.686Z,83.69
2023-02-14T04:35:18.538Z,84.52
2023-02-14T04:37:47.066Z,86.72
2023-02-14T04:40:17.859Z,87.55
2023-02-14T04:42:46.502Z,87.73
2023-02-14T04:45:16.600Z,84.86
2023-02-14T04:47:45.579Z,84.95
2023-02-14T04:50:14.952Z,84.38
2023-02-14T04:52:43.414Z,83.99
2023-02-14T04:55:12.219Z,83.94
2023-02-14T04:57:40.649Z,83.98
2023-02-14T05:00:11.105Z,84.51
2023-02-14T05:02:40.932Z,86.02
2023-02-14T05:05:09.898Z,83.43
2023-02-14T05:07:38.654Z,83.27
2023-02-14T05:10:08.513Z,84.45
2023-02-14T05:12:36.946Z,83.42
2023-02-14T05:15:05.967Z,84.35
2023-02-14T05:17:34.403Z,85.29
2023-02-14T05:20:06.099Z,84.90
2023-02-14T05:22:34.548Z,85.47
2023-02-14T05:25:03.532Z,87.21
2023-02-14T05:27:32.015Z,84.42
2023-02-14T05:30:00.533Z,84.88
2023-02-14T05:32:29.064Z,85.54
2023-02-14T05:34:58.059Z,83.40
2023-02-14T05:37:28.870Z,83.66
2023-02-14T05:39:57.283Z,86.05
2023-02-14T05:42:25.732Z,85.71
2023-02-14T05:44:54.144Z,85.27
2023-02-14T05:47:22.634Z,82.95
2023-02-14T05:49:51.119Z,83.56
2023-02-14T05:52:19.762Z,84.75
2023-02-14T05:54:49.586Z,85.24
2023-02-14T05:57:18.468Z,86.17
2023-02-14T05:59:46.916Z,83.60
2023-02-14T06:02:16.039Z,84.28
2023-02-14T06:04:44.749Z,82.91
2023-02-14T06:07:13.263Z,83.33
2023-02-14T06:09:41.758Z,82.67
2023-02-14T06:12:11.558Z,83.52
2023-02-14T06:14:41.447Z,83.36
2023-02-14T06:17:10.467Z,83.74
2023-02-14T06:19:39.564Z,82.84
2023-02-14T06:22:08.212Z,83.23
2023-02-14T06:24:37.066Z,84.18
2023-02-14T06:27:06.564Z,83.40
2023-02-14T06:29:36.443Z,85.06
2023-02-14T06:32:08.120Z,84.84
2023-02-14T06:34:37.007Z,83.13
2023-02-14T06:37:05.438Z,83.41
2023-02-14T06:39:33.992Z,82.61
2023-02-14T06:42:02.694Z,82.57
2023-02-14T06:44:31.124Z,83.74
2023-02-14T06:47:00.922Z,84.31
2023-02-14T06:49:29.377Z,83.63
2023-02-14T06:51:58.015Z,83.29
2023-02-14T06:54:26.430Z,82.83
2023-02-14T06:56:55.180Z,83.41
2023-02-14T06:59:23.652Z,83.33
2023-02-14T07:01:52.190Z,83.47
2023-02-14T07:04:22.346Z,83.15
2023-02-14T07:06:50.892Z,82.92
2023-02-14T07:09:19.374Z,84.88
2023-02-14T07:11:47.832Z,83.84
2023-02-14T07:14:16.324Z,84.81
2023-02-14T07:16:44.808Z,85.30
2023-02-14T07:19:13.307Z,85.37
2023-02-14T07:21:43.192Z,83.63
2023-02-14T07:24:12.748Z,83.32
2023-02-14T07:26:41.165Z,83.87
2023-02-14T07:29:09.600Z,83.24
2023-02-14T07:31:38.422Z,83.71
2023-02-14T07:34:06.868Z,84.90
2023-02-14T07:36:35.904Z,84.24
2023-02-14T07:39:05.826Z,83.48
2023-02-14T07:41:34.250Z,84.00
2023-02-14T07:44:02.702Z,86.06
2023-02-14T07:46:31.217Z,83.93
2023-02-14T07:48:59.684Z,86.08
2023-02-14T07:51:28.220Z,84.90
2023-02-14T07:53:56.668Z,83.87
2023-02-14T07:56:26.558Z,84.00
2023-02-14T07:58:54.984Z,85.28
2023-02-14T08:01:23.456Z,88.54
2023-02-14T08:03:52.728Z,89.54
2023-02-14T08:06:21.447Z,89.01
2023-02-14T08:08:50.235Z,89.63
2023-02-14T08:11:32.809Z,87.82
2023-02-14T08:16:52.472Z,87.54
2023-02-14T08:19:21.121Z,89.39
2023-02-14T08:21:49.539Z,88.60
2023-02-14T08:24:17.963Z,88.48
2023-02-14T08:26:46.491Z,91.17
2023-02-14T08:29:16.938Z,91.29
2023-02-14T08:31:46.931Z,90.97
2023-02-14T08:34:16.160Z,91.53
2023-02-14T08:36:45.932Z,91.30
2023-02-14T08:39:14.398Z,90.98
2023-02-14T08:41:42.812Z,90.85
2023-02-14T08:44:11.615Z,91.00
2023-02-14T08:46:41.819Z,91.39
2023-02-14T08:49:11.558Z,92.40
2023-02-14T08:51:40.010Z,91.54
2023-02-14T08:54:08.562Z,92.20
2023-02-14T08:56:37.279Z,92.87
2023-02-14T08:59:05.779Z,91.86
2023-02-14T09:01:36.155Z,92.54
2023-02-14T09:04:06.096Z,92.47
2023-02-14T09:06:34.634Z,92.48
2023-02-14T09:09:03.050Z,93.61
2023-02-14T09:11:31.540Z,92.54
2023-02-14T09:14:00.085Z,93.37
2023-02-14T09:16:28.622Z,92.49
2023-02-14T09:18:57.747Z,93.11
2023-02-14T09:21:30.376Z,93.04
2023-02-14T09:23:58.851Z,92.49
2023-02-14T09:26:27.603Z,93.08
2023-02-14T09:28:56.044Z,93.35
2023-02-14T09:31:26.726Z,92.69
2023-02-14T09:34:13.582Z,93.06
2023-02-14T09:36:43.681Z,93.40
2023-02-14T09:39:12.109Z,93.67
2023-02-14T09:42:38.478Z,93.03
2023-02-14T09:45:12.595Z,91.58
2023-02-14T09:47:48.990Z,90.95
2023-02-14T09:50:24.424Z,90.83
2023-02-14T09:52:59.040Z,90.68
2023-02-14T09:55:36.267Z,90.33
2023-02-14T09:58:14.809Z,90.20
2023-02-14T10:00:49.713Z,90.78
2023-02-14T10:03:48.602Z,90.73
2023-02-14T10:06:40.244Z,91.24
2023-02-14T10:09:43.011Z,91.07
2023-02-14T10:12:18.453Z,90.72
2023-02-14T10:14:47.611Z,90.28
2023-02-14T10:17:20.813Z,89.62
2023-02-14T10:19:57.143Z,90.10
2023-02-14T10:22:35.906Z,89.44
2023-02-14T10:25:16.804Z,89.48
2023-02-14T10:27:48.288Z,89.14
2023-02-14T10:30:21.250Z,88.02
2023-02-14T10:32:52.162Z,87.71
2023-02-14T10:35:33.093Z,85.83
2023-02-14T10:38:17.625Z,85.25
2023-02-14T10:41:26.252Z,84.76
2023-02-14T10:44:10.506Z,84.61
2023-02-14T10:46:46.070Z,84.82
2023-02-14T10:49:30.711Z,84.66
2023-02-14T10:52:10.108Z,82.81
2023-02-14T10:54:41.866Z,83.17
2023-02-14T10:57:16.584Z,82.65
2023-02-14T10:59:53.838Z,81.88
2023-02-14T11:02:28.177Z,81.38
2023-02-14T11:04:57.461Z,80.50
2023-02-14T11:07:25.874Z,79.47
2023-02-14T11:09:54.332Z,79.05
2023-02-14T11:12:40.478Z,77.50
2023-02-14T11:15:23.572Z,76.31
2023-02-14T11:18:09.883Z,75.57
2023-02-14T11:20:39.516Z,74.34
2023-02-14T11:23:21.148Z,74.05
2023-02-14T11:25:56.570Z,74.51
2023-02-14T11:28:26.517Z,74.47
2023-02-14T11:30:55.959Z,72.73
2023-02-14T11:33:35.678Z,71.54
2023-02-14T11:36:06.873Z,70.89
2023-02-14T11:38:40.020Z,68.68
2023-02-14T11:41:13.011Z,66.14
2023-02-14T11:43:45.273Z,66.35
2023-02-14T11:46:56.445Z,65.20
2023-02-14T11:49:32.143Z,64.26
2023-02-14T11:52:10.572Z,62.99
2023-02-14T11:54:41.834Z,61.89
2023-02-14T11:57:23.317Z,58.34
2023-02-14T11:59:55.894Z,56.93
2023-02-14T12:02:34.022Z,57.95
2023-02-14T12:05:07.817Z,57.58
2023-02-14T12:07:38.555Z,56.98
2023-02-14T12:10:26.811Z,55.93
2023-02-14T12:13:00.549Z,55.22
2023-02-14T12:15:37.974Z,55.03
2023-02-14T12:18:43.664Z,54.51
2023-02-14T12:21:45.062Z,53.41
2023-02-14T12:24:21.671Z,52.56
2023-02-14T12:26:58.791Z,51.22
2023-02-14T12:29:34.644Z,49.92
2023-02-14T12:32:22.533Z,51.79
2023-02-14T12:34:52.256Z,51.01
2023-02-14T12:37:42.161Z,49.08
2023-02-14T12:40:22.779Z,49.43
2023-02-14T12:43:31.953Z,49.03
2023-02-14T12:46:18.089Z,49.24
2023-02-14T12:49:07.180Z,47.57
2023-02-14T12:51:44.114Z,48.22
2023-02-14T12:54:50.770Z,49.41
2023-02-14T12:57:36.776Z,52.31
2023-02-14T13:00:23.689Z,50.42
2023-02-14T13:03:23.221Z,49.59
2023-02-14T13:06:01.912Z,52.46
2023-02-14T13:09:01.257Z,51.06
2023-02-14T13:11:40.152Z,51.12
2023-02-14T13:14:28.519Z,48.42
2023-02-14T13:17:05.754Z,47.46
2023-02-14T13:19:45.223Z,50.62
2023-02-14T13:22:20.026Z,48.92
2023-02-14T13:24:52.724Z,49.91
2023-02-14T13:27:25.702Z,51.06
2023-02-14T13:29:59.894Z,43.70
2023-02-14T13:32:34.588Z,53.72
2023-02-14T13:35:04.016Z,48.56
2023-02-14T13:37:34.445Z,48.96
2023-02-14T13:40:08.292Z,49.50
2023-02-14T13:42:57.887Z,49.04
2023-02-14T13:45:59.460Z,49.90
2023-02-14T13:48:29.536Z,41.79
2023-02-14T13:51:00.877Z,48.36
2023-02-14T13:53:38.288Z,42.72
2023-02-14T13:56:32.742Z,46.53
2023-02-14T13:59:05.672Z,42.78
2023-02-14T14:01:39.361Z,42.36
2023-02-14T14:04:37.507Z,48.79
2023-02-14T14:07:30.133Z,47.31
2023-02-14T14:10:11.107Z,46.19
2023-02-14T14:12:42.586Z,49.15
2023-02-14T14:15:17.808Z,47.20
2023-02-14T14:18:41.450Z,50.63
2023-02-14T14:21:24.594Z,48.86
2023-02-14T14:24:22.399Z,48.84
2023-02-14T14:26:53.210Z,45.59
2023-02-14T14:29:34.800Z,53.48
2023-02-14T14:32:10.251Z,48.41
2023-02-14T14:34:38.811Z,50.53
2023-02-14T14:37:18.216Z,51.92
2023-02-14T14:39:53.519Z,52.67
2023-02-14T14:42:23.304Z,51.07
2023-02-14T14:44:55.467Z,52.70
2023-02-14T14:47:26.312Z,50.90
2023-02-14T14:50:00.642Z,49.75
2023-02-14T14:52:41.081Z,55.92
2023-02-14T14:55:19.332Z,55.88
2023-02-14T14:57:52.219Z,54.34
2023-02-14T15:00:27.423Z,54.34
2023-02-14T15:03:06.085Z,51.40
2023-02-14T15:05:38.467Z,54.66
2023-02-14T15:08:22.822Z,54.70
2023-02-14T15:10:55.782Z,56.59
2023-02-14T15:13:50.815Z,56.86
2023-02-14T15:16:26.496Z,57.60
2023-02-14T15:18:59.504Z,57.89
2023-02-14T15:23:59.642Z,58.63
2023-02-14T15:26:32.847Z,58.81
2023-02-14T15:29:03.799Z,59.17
2023-02-14T15:31:36.834Z,61.03
2023-02-14T15:34:06.473Z,60.65
2023-02-14T15:36:36.104Z,60.82
2023-02-14T15:39:09.967Z,61.13
2023-02-14T15:41:43.840Z,61.99
2023-02-14T15:47:24.405Z,63.25
2023-02-14T15:49:53.011Z,63.33
2023-02-14T15:52:22.053Z,63.29
2023-02-14T15:54:50.617Z,64.06
2023-02-14T15:57:25.120Z,64.60
2023-02-14T15:59:54.246Z,64.86
2023-02-14T16:02:34.294Z,64.59
2023-02-14T16:05:15.631Z,64.94
2023-02-14T16:08:03.633Z,65.86
2023-02-14T16:10:35.531Z,67.06
2023-02-14T16:13:08.688Z,68.28
2023-02-14T16:15:38.882Z,68.02
2023-02-14T16:18:34.989Z,68.13
2023-02-14T16:21:19.190Z,68.42
2023-02-14T16:23:49.720Z,68.03
2023-02-14T16:26:18.537Z,69.59
2023-02-14T16:28:47.317Z,70.33
2023-02-14T16:31:17.718Z,72.63
2023-02-14T16:33:47.792Z,73.17
2023-02-14T16:36:23.795Z,74.22
2023-02-14T16:38:53.071Z,73.80
2023-02-14T16:41:24.936Z,75.20
2023-02-14T16:43:53.915Z,75.10
2023-02-14T16:46:25.612Z,75.64
2023-02-14T16:48:55.701Z,75.47
2023-02-14T16:51:27.673Z,77.01
2023-02-14T16:53:58.396Z,77.18
2023-02-14T16:56:31.003Z,77.62
2023-02-14T16:59:00.131Z,78.21
2023-02-14T17:01:28.903Z,77.23
2023-02-14T17:03:58.766Z,77.58
2023-02-14T17:06:28.991Z,78.19
2023-02-14T17:08:59.659Z,78.77
2023-02-14T17:11:29.669Z,78.11
2023-02-14T17:13:58.327Z,77.60
2023-02-14T17:16:26.843Z,78.21
2023-02-14T17:18:55.596Z,78.48
2023-02-14T17:21:26.078Z,79.17
2023-02-14T17:23:54.528Z,77.73
2023-02-14T17:26:24.844Z,76.46
2023-02-14T17:28:54.022Z,77.68
2023-02-14T17:31:25.503Z,79.97
2023-02-14T17:33:54.854Z,80.87
2023-02-14T17:36:25.158Z,81.44
2023-02-14T17:38:55.465Z,79.83
2023-02-14T17:41:26.524Z,80.64
2023-02-14T17:44:00.222Z,78.66
2023-02-14T17:46:30.018Z,77.94
2023-02-14T17:49:02.554Z,78.62
2023-02-14T17:51:32.884Z,80.52
2023-02-14T17:54:01.546Z,79.22
2023-02-14T17:56:30.030Z,80.67
2023-02-14T17:58:59.903Z,79.30
2023-02-14T18:01:31.615Z,80.79
2023-02-14T18:04:00.132Z,79.60
2023-02-14T18:06:29.107Z,80.11
2023-02-14T18:08:59.334Z,79.17
2023-02-14T18:11:29.659Z,78.83
2023-02-14T18:13:59.702Z,78.51
2023-02-14T18:16:28.968Z,78.06
2023-02-14T18:18:57.478Z,79.06
2023-02-14T18:21:26.036Z,79.30
2023-02-14T18:23:54.458Z,78.08
2023-02-14T18:26:24.472Z,78.77
2023-02-14T18:28:52.863Z,78.56
2023-02-14T18:31:22.072Z,79.38
2023-02-14T18:33:51.824Z,78.83
2023-02-14T18:36:24.401Z,79.71
2023-02-14T18:38:55.165Z,79.75
2023-02-14T18:41:26.139Z,79.90
2023-02-14T18:43:55.196Z,79.42
2023-02-14T18:46:26.833Z,79.47
2023-02-14T18:49:00.682Z,79.55
2023-02-14T18:51:31.700Z,79.34
2023-02-14T18:54:02.376Z,80.89
2023-02-14T18:56:35.723Z,80.42
2023-02-14T18:59:07.778Z,79.40
2023-02-14T19:01:39.668Z,79.50
2023-02-14T19:04:12.085Z,81.97
2023-02-14T19:06:42.617Z,81.36
2023-02-14T19:09:13.851Z,79.59
2023-02-14T19:11:43.797Z,79.06
2023-02-14T19:14:14.152Z,81.05
2023-02-14T19:16:51.241Z,80.05
2023-02-14T19:19:22.905Z,79.51
2023-02-14T19:21:52.180Z,81.13
2023-02-14T19:24:23.068Z,82.38
2023-02-14T19:26:55.172Z,81.53
2023-02-14T19:29:24.051Z,82.74
2023-02-14T19:31:56.104Z,81.99
2023-02-14T19:34:29.233Z,80.62
2023-02-14T19:37:00.457Z,80.35
2023-02-14T19:39:30.771Z,80.17
2023-02-14T19:42:01.045Z,79.99
2023-02-14T19:44:31.444Z,79.61
2023-02-14T19:47:04.113Z,80.46
2023-02-14T19:49:38.983Z,81.96
2023-02-14T19:52:14.154Z,81.66
2023-02-14T19:54:46.353Z,82.09
2023-02-14T19:57:17.447Z,81.09
2023-02-14T19:59:46.084Z,79.83
2023-02-14T20:02:17.366Z,80.90
2023-02-14T20:04:46.157Z,84.17
2023-02-14T20:07:14.788Z,82.61
2023-02-14T20:09:43.423Z,80.85
2023-02-14T20:12:11.851Z,82.08
2023-02-14T20:14:50.957Z,83.49
2023-02-14T20:17:20.060Z,81.72
2023-02-14T20:19:48.977Z,81.47
2023-02-14T20:22:17.430Z,81.27
2023-02-14T20:24:46.043Z,80.66
2023-02-14T20:27:14.462Z,80.58
2023-02-14T20:29:45.051Z,81.10
2023-02-14T20:32:16.325Z,82.84
2023-02-14T20:34:44.985Z,81.07
2023-02-14T20:37:13.483Z,81.99
2023-02-14T20:39:42.143Z,81.13
2023-02-14T20:42:10.643Z,81.04
2023-02-14T20:44:39.723Z,80.19
2023-02-14T20:47:11.297Z,81.15
2023-02-14T20:49:40.282Z,81.93
2023-02-14T20:52:08.705Z,81.79
2023-02-14T20:54:40.116Z,82.99
2023-02-14T20:57:08.522Z,84.60
2023-02-14T20:59:37.953Z,82.24
2023-02-14T21:02:08.090Z,81.93
2023-02-14T21:04:36.496Z,81.46
2023-02-14T21:07:09.140Z,81.94
2023-02-14T21:09:38.836Z,82.29
2023-02-14T21:12:08.663Z,82.05
2023-02-14T21:14:37.358Z,81.76
2023-02-14T21:17:06.334Z,82.64
2023-02-14T21:19:36.173Z,82.09
2023-02-14T21:22:04.636Z,81.61
2023-02-14T21:24:33.143Z,82.77
2023-02-14T21:27:02.862Z,82.39
2023-02-14T21:29:31.499Z,85.16
2023-02-14T21:32:02.545Z,85.96
2023-02-14T21:34:32.304Z,82.73
2023-02-14T21:37:02.129Z,81.97
2023-02-14T21:39:31.323Z,81.71
2023-02-14T21:42:01.007Z,81.90
2023-02-14T21:44:47.212Z,81.43
2023-02-14T21:47:15.877Z,81.27
2023-02-14T21:50:01.546Z,82.06
2023-02-14T21:52:31.639Z,84.83
2023-02-14T21:55:00.085Z,82.43
2023-02-14T21:57:28.487Z,84.36
2023-02-14T21:59:56.908Z,86.02
2023-02-14T22:02:25.377Z,82.69
2023-02-14T22:04:54.097Z,81.54
2023-02-14T22:07:22.519Z,82.46
2023-02-14T22:09:52.304Z,82.60
2023-02-14T22:12:20.716Z,84.42
2023-02-14T22:14:49.158Z,81.80
2023-02-14T22:17:17.567Z,81.66
2023-02-14T22:19:46.271Z,81.36
2023-02-14T22:22:14.739Z,81.81
2023-02-14T22:24:43.150Z,83.07
2023-02-14T22:27:13.168Z,86.72
2023-02-14T22:29:41.614Z,83.23
2023-02-14T22:32:10.444Z,82.32
2023-02-14T22:34:38.924Z,81.82
2023-02-14T22:37:07.584Z,85.95
2023-02-14T22:39:36.279Z,86.79
2023-02-14T22:42:06.913Z,83.50
2023-02-14T22:44:36.919Z,82.35
2023-02-14T22:47:05.424Z,82.88
2023-02-14T22:49:34.098Z,82.91
2023-02-14T22:52:02.743Z,84.80
2023-02-14T22:54:31.153Z,82.06
2023-02-14T22:57:00.441Z,82.36
2023-02-14T22:59:31.474Z,82.12
2023-02-14T23:02:02.632Z,81.48
2023-02-14T23:04:31.454Z,81.71
2023-02-14T23:06:59.881Z,82.46
2023-02-14T23:09:28.584Z,82.29
2023-02-14T23:11:57.047Z,83.74
2023-02-14T23:14:43.037Z,83.26
2023-02-14T23:17:34.862Z,81.71
2023-02-14T23:20:21.081Z,81.67
2023-02-14T23:22:49.515Z,81.40
2023-02-14T23:25:18.119Z,81.49
2023-02-14T23:27:48.379Z,82.09
2023-02-14T23:30:20.791Z,83.32
2023-02-14T23:32:50.594Z,83.15
2023-02-14T23:35:19.252Z,83.70
2023-02-14T23:37:47.678Z,82.31
2023-02-14T23:40:16.092Z,82.07
2023-02-14T23:42:44.503Z,81.19
2023-02-14T23:45:30.616Z,81.01
2023-02-14T23:48:05.114Z,83.25
2023-02-14T23:50:33.618Z,81.31
2023-02-14T23:53:02.285Z,82.70
2023-02-14T23:55:30.772Z,81.68
2023-02-14T23:57:59.438Z,80.96
